createdAt,value
2019-03-11T00:01:55.170Z,11.17
2019-03-11T00:04:43.019Z,9.13
2019-03-11T00:07:31.904Z,10.53
2019-03-11T00:10:26.287Z,18.43
2019-03-11T00:13:14.624Z,9.00
2019-03-11T00:16:01.485Z,17.07
2019-03-11T00:18:48.010Z,12.27
2019-03-11T00:21:35.326Z,13.97
2019-03-11T00:24:22.659Z,10.30
2019-03-11T00:27:09.067Z,13.13
2019-03-11T00:29:56.517Z,10.80
2019-03-11T00:32:42.922Z,8.80
2019-03-11T00:35:29.471Z,7.77
2019-03-11T00:38:16.686Z,7.77
2019-03-11T00:41:03.470Z,9.83
2019-03-11T00:43:50.368Z,8.50
2019-03-11T00:46:37.469Z,7.87
2019-03-11T00:49:24.306Z,9.20
2019-03-11T00:52:10.794Z,8.13
2019-03-11T00:54:57.566Z,8.70
2019-03-11T00:57:44.278Z,7.50
2019-03-11T01:00:35.602Z,9.53
2019-03-11T01:03:22.429Z,7.47
2019-03-11T01:06:08.902Z,7.50
2019-03-11T01:08:55.491Z,8.40
2019-03-11T01:11:42.319Z,8.30
2019-03-11T01:14:29.306Z,7.17
2019-03-11T01:17:16.073Z,8.83
2019-03-11T01:20:02.716Z,8.97
2019-03-11T01:22:49.202Z,6.70
2019-03-11T01:25:36.175Z,5.03
2019-03-11T01:28:23.023Z,7.93
2019-03-11T01:31:09.423Z,7.93
2019-03-11T01:33:56.443Z,10.77
2019-03-11T01:36:42.924Z,4.10
2019-03-11T01:39:29.285Z,4.13
2019-03-11T01:42:16.012Z,8.13
2019-03-11T01:45:02.783Z,8.00
2019-03-11T01:47:49.280Z,11.57
2019-03-11T01:50:36.365Z,10.10
2019-03-11T01:53:22.864Z,5.07
2019-03-11T01:56:09.582Z,10.37
2019-03-11T01:58:56.662Z,14.53
2019-03-11T02:01:43.233Z,8.47
2019-03-11T02:04:29.866Z,13.20
2019-03-11T02:07:16.854Z,13.67
2019-03-11T02:10:04.332Z,15.93
2019-03-11T02:12:50.807Z,17.37
2019-03-11T02:15:38.641Z,16.30
2019-03-11T02:18:25.670Z,18.60
2019-03-11T02:21:12.665Z,20.13
2019-03-11T02:23:59.507Z,20.93
2019-03-11T02:26:45.794Z,16.97
2019-03-11T02:29:32.349Z,14.67
2019-03-11T02:32:19.696Z,13.40
2019-03-11T02:35:06.286Z,14.27
2019-03-11T02:37:53.162Z,8.33
2019-03-11T02:40:40.216Z,9.50
2019-03-11T02:43:26.536Z,9.50
2019-03-11T02:46:13.745Z,9.13
2019-03-11T02:49:00.581Z,9.00
2019-03-11T02:51:47.097Z,9.93
2019-03-11T02:54:34.150Z,7.73
2019-03-11T02:57:21.448Z,9.80
2019-03-11T03:00:09.548Z,8.93
2019-03-11T03:03:06.016Z,6.40
2019-03-11T03:05:57.729Z,9.20
2019-03-11T03:08:44.333Z,9.43
2019-03-11T03:11:30.932Z,9.53
2019-03-11T03:14:17.707Z,7.50
2019-03-11T03:17:04.881Z,10.23
2019-03-11T03:19:52.776Z,5.87
2019-03-11T03:22:39.164Z,10.77
2019-03-11T03:25:33.719Z,7.20
2019-03-11T03:28:14.777Z,11.07
2019-03-11T03:31:01.026Z,8.67
2019-03-11T03:33:47.781Z,8.37
2019-03-11T03:36:34.505Z,10.37
2019-03-11T03:39:20.979Z,11.87
2019-03-11T03:42:12.763Z,8.77
2019-03-11T03:45:39.233Z,10.50
2019-03-11T03:48:26.571Z,12.13
2019-03-11T03:51:14.087Z,9.03
2019-03-11T03:54:00.550Z,12.03
2019-03-11T03:56:47.284Z,10.20
2019-03-11T03:59:34.176Z,16.07
2019-03-11T04:02:21.026Z,13.37
2019-03-11T04:05:08.625Z,15.73
2019-03-11T04:07:55.544Z,10.03
2019-03-11T04:10:42.387Z,6.17
2019-03-11T04:13:28.968Z,12.80
2019-03-11T04:16:15.590Z,12.20
2019-03-11T04:19:02.827Z,7.80
2019-03-11T04:21:49.448Z,11.43
2019-03-11T04:24:36.508Z,17.97
2019-03-11T04:27:22.928Z,11.60
2019-03-11T04:30:12.476Z,12.40
2019-03-11T04:32:59.269Z,7.43
2019-03-11T04:35:46.016Z,10.00
2019-03-11T04:38:32.415Z,8.43
2019-03-11T04:41:19.531Z,13.40
2019-03-11T04:44:06.896Z,11.23
2019-03-11T04:46:54.104Z,10.03
2019-03-11T04:49:41.032Z,17.43
2019-03-11T04:52:28.707Z,14.80
2019-03-11T04:55:15.802Z,10.13
2019-03-11T04:58:02.956Z,8.57
2019-03-11T05:00:49.800Z,8.70
2019-03-11T05:03:36.435Z,11.83
2019-03-11T05:06:23.584Z,11.90
2019-03-11T05:09:10.675Z,7.83
2019-03-11T05:11:58.123Z,9.70
2019-03-11T05:14:45.519Z,12.20
2019-03-11T05:17:32.377Z,10.27
2019-03-11T05:20:18.908Z,12.67
2019-03-11T05:23:06.028Z,16.33
2019-03-11T05:25:55.714Z,9.43
2019-03-11T05:28:42.744Z,10.30
2019-03-11T05:31:29.691Z,9.90
2019-03-11T05:34:18.503Z,9.57
2019-03-11T05:37:05.187Z,7.90
2019-03-11T05:39:52.026Z,9.77
2019-03-11T05:42:38.620Z,7.67
2019-03-11T05:45:25.373Z,7.77
2019-03-11T05:48:12.324Z,11.27
2019-03-11T05:50:58.832Z,12.77
2019-03-11T05:53:45.668Z,8.93
2019-03-11T05:56:32.900Z,7.47
2019-03-11T05:59:19.840Z,9.27
2019-03-11T06:02:07.533Z,13.03
2019-03-11T06:04:54.538Z,8.13
2019-03-11T06:07:42.595Z,10.40
2019-03-11T06:10:30.104Z,10.97
2019-03-11T06:13:16.737Z,10.93
2019-03-11T06:16:07.781Z,14.60
2019-03-11T06:18:54.936Z,15.00
2019-03-11T06:22:01.000Z,10.33
2019-03-11T06:24:48.485Z,12.83
2019-03-11T06:27:35.002Z,7.90
2019-03-11T06:30:21.716Z,10.20
2019-03-11T06:33:08.548Z,12.73
2019-03-11T06:35:57.732Z,10.33
2019-03-11T06:38:44.397Z,13.87
2019-03-11T06:41:32.545Z,9.07
2019-03-11T06:44:21.965Z,11.57
2019-03-11T06:47:08.505Z,9.83
2019-03-11T06:49:59.220Z,11.60
2019-03-11T06:52:45.761Z,9.53
2019-03-11T06:55:33.160Z,15.70
2019-03-11T06:58:20.262Z,12.43
2019-03-11T07:01:08.187Z,12.67
2019-03-11T07:03:55.763Z,8.53
2019-03-11T07:06:42.803Z,14.50
2019-03-11T07:09:30.076Z,14.23
2019-03-11T07:12:17.283Z,11.23
2019-03-11T07:15:12.767Z,10.40
2019-03-11T07:18:07.233Z,9.27
2019-03-11T07:20:56.449Z,11.90
2019-03-11T07:23:43.626Z,8.87
2019-03-11T07:26:31.973Z,7.90
2019-03-11T07:29:18.730Z,6.93
2019-03-11T07:32:05.527Z,8.20
2019-03-11T07:34:52.354Z,12.20
2019-03-11T07:37:41.210Z,6.53
2019-03-11T07:40:30.058Z,6.40
2019-03-11T07:43:15.599Z,10.07
2019-03-11T07:46:02.302Z,11.23
2019-03-11T07:48:48.921Z,11.03
2019-03-11T07:51:38.818Z,9.90
2019-03-11T07:54:35.545Z,10.97
2019-03-11T07:57:13.606Z,15.77
2019-03-11T08:00:00.686Z,13.97
2019-03-11T08:02:47.304Z,10.63
2019-03-11T08:05:34.043Z,15.83
2019-03-11T08:08:24.228Z,16.37
2019-03-11T08:11:11.828Z,12.53
2019-03-11T08:13:59.147Z,9.20
2019-03-11T08:16:47.213Z,15.03
2019-03-11T08:19:34.057Z,10.77
2019-03-11T08:22:20.866Z,10.90
2019-03-11T08:25:08.304Z,10.17
2019-03-11T08:27:54.903Z,13.70
2019-03-11T08:30:44.883Z,7.23
2019-03-11T08:33:31.715Z,12.33
2019-03-11T08:36:18.399Z,11.33
2019-03-11T08:39:09.260Z,10.17
2019-03-11T08:41:59.307Z,17.63
2019-03-11T08:44:45.820Z,12.30
2019-03-11T08:47:32.627Z,11.17
2019-03-11T08:50:19.864Z,12.97
2019-03-11T08:53:06.435Z,15.50
2019-03-11T08:55:54.625Z,15.90
2019-03-11T08:58:41.761Z,12.33
2019-03-11T09:01:30.832Z,17.33
2019-03-11T09:04:17.247Z,14.07
2019-03-11T09:07:04.060Z,17.40
2019-03-11T09:09:50.760Z,15.97
2019-03-11T09:12:40.979Z,18.67
2019-03-11T09:15:27.647Z,18.87
2019-03-11T09:18:13.978Z,19.90
2019-03-11T09:21:04.824Z,15.20
2019-03-11T09:23:51.420Z,20.60
2019-03-11T09:26:39.246Z,20.17
2019-03-11T09:29:25.647Z,19.27
2019-03-11T09:32:13.868Z,19.23
2019-03-11T09:35:00.532Z,15.90
2019-03-11T09:37:47.103Z,17.13
2019-03-11T09:40:33.987Z,15.53
2019-03-11T09:43:22.183Z,14.67
2019-03-11T09:46:08.603Z,15.83
2019-03-11T09:48:55.772Z,18.67
2019-03-11T09:51:43.588Z,15.03
2019-03-11T09:54:30.577Z,16.70
2019-03-11T09:57:18.459Z,20.87
2019-03-11T10:00:08.312Z,17.93
2019-03-11T10:02:54.642Z,17.23
2019-03-11T10:05:41.565Z,19.57
2019-03-11T10:08:28.256Z,21.20
2019-03-11T10:11:15.087Z,18.67
2019-03-11T10:14:02.800Z,22.60
2019-03-11T10:16:50.544Z,14.03
2019-03-11T10:19:37.217Z,22.73
2019-03-11T10:22:23.799Z,17.90
2019-03-11T10:25:10.897Z,19.90
2019-03-11T10:27:57.767Z,12.10
2019-03-11T10:30:44.584Z,21.63
2019-03-11T10:33:31.148Z,20.80
2019-03-11T10:36:21.222Z,16.87
2019-03-11T10:39:08.415Z,27.37
2019-03-11T10:41:54.563Z,26.10
2019-03-11T10:44:41.704Z,22.23
2019-03-11T10:47:28.368Z,16.33
2019-03-11T10:50:14.848Z,18.60
2019-03-11T10:53:01.829Z,17.87
2019-03-11T10:55:48.240Z,11.20
2019-03-11T10:58:42.889Z,17.10
2019-03-11T11:01:29.243Z,15.50
2019-03-11T11:04:15.959Z,13.67
2019-03-11T11:07:03.075Z,9.50
2019-03-11T11:09:49.612Z,14.00
2019-03-11T11:12:37.305Z,19.43
2019-03-11T11:15:26.107Z,16.53
2019-03-11T11:18:13.165Z,12.73
2019-03-11T11:20:59.728Z,16.27
2019-03-11T11:23:46.838Z,13.10
2019-03-11T11:26:38.656Z,10.43
2019-03-11T11:29:25.020Z,6.87
2019-03-11T11:32:11.445Z,9.70
2019-03-11T11:34:58.580Z,11.43
2019-03-11T11:37:45.149Z,11.00
2019-03-11T11:40:31.424Z,10.30
2019-03-11T11:43:17.871Z,10.87
2019-03-11T11:46:05.002Z,10.60
2019-03-11T11:48:51.659Z,10.87
2019-03-11T11:51:38.653Z,9.67
2019-03-11T11:54:25.490Z,15.43
2019-03-11T11:57:11.677Z,26.20
2019-03-11T11:59:59.844Z,14.33
2019-03-11T12:02:46.327Z,11.93
2019-03-11T12:05:32.434Z,11.47
2019-03-11T12:08:18.955Z,12.17
2019-03-11T12:11:05.728Z,12.00
2019-03-11T12:13:51.987Z,9.50
2019-03-11T12:16:38.233Z,14.43
2019-03-11T12:19:25.218Z,11.40
2019-03-11T12:22:13.095Z,10.47
2019-03-11T12:24:59.781Z,8.63
2019-03-11T12:27:53.559Z,6.80
2019-03-11T12:30:34.854Z,6.20
2019-03-11T12:33:21.692Z,12.90
2019-03-11T12:36:09.461Z,13.67
2019-03-11T12:38:59.249Z,9.63
2019-03-11T12:41:45.667Z,7.17
2019-03-11T12:44:32.413Z,9.30
2019-03-11T12:47:21.307Z,6.83
2019-03-11T12:50:10.825Z,9.83
2019-03-11T12:52:57.373Z,13.57
2019-03-11T12:55:43.678Z,14.90
2019-03-11T12:58:40.799Z,9.23
2019-03-11T13:01:18.060Z,9.93
2019-03-11T13:04:04.542Z,6.37
2019-03-11T13:06:51.414Z,10.40
2019-03-11T13:09:37.618Z,5.73
2019-03-11T13:12:24.087Z,5.70
2019-03-11T13:15:10.402Z,9.00
2019-03-11T13:18:18.519Z,10.40
2019-03-11T13:21:09.078Z,8.20
2019-03-11T13:23:55.436Z,9.50
2019-03-11T13:26:42.873Z,11.87
2019-03-11T13:29:29.492Z,11.60
2019-03-11T13:32:16.747Z,13.83
2019-03-11T13:35:03.757Z,8.90
2019-03-11T13:37:50.128Z,10.00
2019-03-11T13:40:36.386Z,10.53
2019-03-11T13:43:24.581Z,13.30
2019-03-11T13:46:13.971Z,16.80
2019-03-11T13:49:00.875Z,15.37
2019-03-11T13:51:48.907Z,7.57
2019-03-11T13:54:35.718Z,12.70
2019-03-11T13:57:22.455Z,8.73
2019-03-11T14:00:09.659Z,8.10
2019-03-11T14:02:57.287Z,8.23
2019-03-11T14:05:44.259Z,5.93
2019-03-11T14:08:30.888Z,8.27
2019-03-11T14:11:20.161Z,13.80
2019-03-11T14:14:06.874Z,8.23
2019-03-11T14:16:58.191Z,10.23
2019-03-11T14:19:44.632Z,8.50
2019-03-11T14:22:31.681Z,7.53
2019-03-11T14:25:17.966Z,6.30
2019-03-11T14:28:04.467Z,3.80
2019-03-11T14:30:51.483Z,4.43
2019-03-11T14:33:38.108Z,5.57
2019-03-11T14:36:33.668Z,11.00
2019-03-11T14:39:28.248Z,13.17
2019-03-11T14:42:16.102Z,7.03
2019-03-11T14:45:04.259Z,11.83
2019-03-11T14:47:50.883Z,12.17
2019-03-11T14:50:37.475Z,6.50
2019-03-11T14:53:27.564Z,6.00
2019-03-11T14:56:14.007Z,6.60
2019-03-11T14:59:00.636Z,9.63
2019-03-11T15:01:47.374Z,4.87
2019-03-11T15:04:34.506Z,10.57
2019-03-11T15:07:20.512Z,7.83
2019-03-11T15:10:08.267Z,11.23
2019-03-11T15:12:54.926Z,10.43
2019-03-11T15:15:41.450Z,7.63
2019-03-11T15:18:31.076Z,8.77
2019-03-11T15:21:17.534Z,4.70
2019-03-11T15:24:03.964Z,13.90
2019-03-11T15:26:59.352Z,8.80
2019-03-11T15:29:54.201Z,8.33
2019-03-11T15:32:42.403Z,5.50
2019-03-11T15:35:29.602Z,7.90
2019-03-11T15:38:15.924Z,7.00
2019-03-11T15:41:02.775Z,15.13
2019-03-11T15:43:51.585Z,10.30
2019-03-11T15:46:39.591Z,9.23
2019-03-11T15:49:27.956Z,10.97
2019-03-11T15:52:14.756Z,10.57
2019-03-11T15:55:03.604Z,16.00
2019-03-11T15:57:50.357Z,15.87
2019-03-11T16:04:39.786Z,10.33
2019-03-11T16:07:26.114Z,10.90
2019-03-11T16:10:17.139Z,5.47
2019-03-11T16:13:01.842Z,9.87
2019-03-11T16:15:48.216Z,10.77
2019-03-11T16:18:35.345Z,8.00
2019-03-11T16:21:22.046Z,10.73
2019-03-11T16:24:08.556Z,10.20
2019-03-11T16:26:55.469Z,10.03
2019-03-11T16:29:42.139Z,6.40
2019-03-11T16:32:36.875Z,7.53
2019-03-11T16:35:21.480Z,8.57
2019-03-11T16:38:10.624Z,9.60
2019-03-11T16:40:57.728Z,9.17
2019-03-11T16:43:44.631Z,9.93
2019-03-11T16:46:30.761Z,8.57
2019-03-11T16:49:18.363Z,7.23
2019-03-11T16:52:04.692Z,10.43
2019-03-11T16:54:51.527Z,5.93
2019-03-11T16:57:38.663Z,8.17
2019-03-11T17:00:31.050Z,12.03
2019-03-11T17:03:18.071Z,10.00
2019-03-11T17:06:05.414Z,11.73
2019-03-11T17:08:51.934Z,10.23
2019-03-11T17:11:52.896Z,14.80
2019-03-11T17:14:40.037Z,12.83
2019-03-11T17:17:26.707Z,6.37
2019-03-11T17:20:16.065Z,10.17
2019-03-11T17:23:10.048Z,7.97
2019-03-11T17:25:56.579Z,4.50
2019-03-11T17:28:52.358Z,3.93
2019-03-11T17:31:58.527Z,5.40
2019-03-11T17:34:46.181Z,9.67
2019-03-11T17:37:32.959Z,7.67
2019-03-11T17:40:22.147Z,9.57
2019-03-11T17:43:10.787Z,4.40
2019-03-11T17:45:57.926Z,6.93
2019-03-11T17:48:44.645Z,3.87
2019-03-11T17:51:31.873Z,6.33
2019-03-11T17:54:18.380Z,4.30
2019-03-11T17:57:08.303Z,9.13
2019-03-11T17:59:57.261Z,9.30
2019-03-11T18:02:43.923Z,6.40
2019-03-11T18:05:32.847Z,5.33
2019-03-11T18:08:23.093Z,8.13
2019-03-11T18:11:10.011Z,7.83
2019-03-11T18:13:56.412Z,7.40
2019-03-11T18:16:42.953Z,6.40
2019-03-11T18:19:29.843Z,8.83
2019-03-11T18:22:17.481Z,9.87
2019-03-11T18:25:04.322Z,6.10
2019-03-11T18:27:51.279Z,11.07
2019-03-11T18:30:37.770Z,9.07
2019-03-11T18:33:24.405Z,10.87
2019-03-11T18:36:11.554Z,7.40
2019-03-11T18:38:58.772Z,7.03
2019-03-11T18:41:46.059Z,4.43
2019-03-11T18:44:35.462Z,10.00
2019-03-11T18:47:21.858Z,8.60
2019-03-11T18:50:10.478Z,8.43
2019-03-11T18:52:57.477Z,11.93
2019-03-11T18:55:44.116Z,7.37
2019-03-11T18:58:31.715Z,11.17
2019-03-11T19:01:26.289Z,6.47
2019-03-11T19:04:13.528Z,7.90
2019-03-11T19:07:02.475Z,7.50
2019-03-11T19:09:51.077Z,9.53
2019-03-11T19:12:37.561Z,6.47
2019-03-11T19:15:24.106Z,5.20
2019-03-11T19:18:10.870Z,4.87
2019-03-11T19:20:58.821Z,6.40
2019-03-11T19:23:46.565Z,5.23
2019-03-11T19:26:38.883Z,5.20
2019-03-11T19:29:26.690Z,7.87
2019-03-11T19:32:13.626Z,5.63
2019-03-11T19:34:59.942Z,8.77
2019-03-11T19:37:47.295Z,10.47
2019-03-11T19:40:39.903Z,7.63
2019-03-11T19:43:29.227Z,7.23
2019-03-11T19:46:16.137Z,5.53
2019-03-11T19:49:03.598Z,4.00
2019-03-11T19:51:49.914Z,11.90
2019-03-11T19:54:36.448Z,7.43
2019-03-11T19:57:23.669Z,7.07
2019-03-11T20:00:13.616Z,4.83
2019-03-11T20:02:59.950Z,14.43
2019-03-11T20:05:47.403Z,7.50
2019-03-11T20:08:34.258Z,7.23
2019-03-11T20:11:21.359Z,7.47
2019-03-11T20:14:12.070Z,11.40
2019-03-11T20:16:59.043Z,12.10
2019-03-11T20:19:49.810Z,12.87
2019-03-11T20:22:36.873Z,10.27
2019-03-11T20:25:26.717Z,10.90
2019-03-11T20:28:13.346Z,16.53
2019-03-11T20:31:00.916Z,18.30
2019-03-11T20:33:50.443Z,15.70
2019-03-11T20:36:40.117Z,13.17
2019-03-11T20:39:30.119Z,13.93
2019-03-11T20:42:17.243Z,18.77
2019-03-11T20:45:07.826Z,14.13
2019-03-11T20:47:54.478Z,18.80
2019-03-11T20:50:44.394Z,13.47
2019-03-11T20:53:33.445Z,12.13
2019-03-11T20:56:20.678Z,11.03
2019-03-11T20:59:07.694Z,12.93
2019-03-11T21:01:57.869Z,10.80
2019-03-11T21:04:48.493Z,12.10
2019-03-11T21:07:43.950Z,12.10
2019-03-11T21:10:30.978Z,9.33
2019-03-11T21:13:23.875Z,13.03
2019-03-11T21:16:10.645Z,9.67
2019-03-11T21:18:57.486Z,14.60
2019-03-11T21:21:44.371Z,19.57
2019-03-11T21:24:33.399Z,13.00
2019-03-11T21:27:20.228Z,13.97
2019-03-11T21:30:10.963Z,16.20
2019-03-11T21:32:58.673Z,16.43
2019-03-11T21:35:45.255Z,12.67
2019-03-11T21:38:31.929Z,16.10
2019-03-11T21:41:23.032Z,12.90
2019-03-11T21:44:09.791Z,18.87
2019-03-11T21:46:59.670Z,18.03
2019-03-11T21:49:46.314Z,16.27
2019-03-11T21:52:32.905Z,17.73
2019-03-11T21:55:19.757Z,15.10
2019-03-11T21:58:13.188Z,13.10
2019-03-11T22:00:54.705Z,18.13
2019-03-11T22:03:41.615Z,15.50
2019-03-11T22:06:30.764Z,14.10
2019-03-11T22:09:16.832Z,13.63
2019-03-11T22:12:03.738Z,11.70
2019-03-11T22:14:51.712Z,13.70
2019-03-11T22:17:41.445Z,11.20
2019-03-11T22:20:28.625Z,16.23
2019-03-11T22:23:15.331Z,13.60
2019-03-11T22:26:01.957Z,17.83
2019-03-11T22:28:48.772Z,12.67
2019-03-11T22:31:35.642Z,18.03
2019-03-11T22:34:22.110Z,18.63
2019-03-11T22:37:09.602Z,15.53
2019-03-11T22:39:56.281Z,16.10
2019-03-11T22:42:43.638Z,18.10
2019-03-11T22:45:30.764Z,16.70
2019-03-11T22:48:17.328Z,18.97
2019-03-11T22:51:03.964Z,17.43
2019-03-11T22:53:53.009Z,16.53
2019-03-11T22:56:39.311Z,9.47
2019-03-11T22:59:25.991Z,19.40
2019-03-11T23:02:14.301Z,16.87
2019-03-11T23:05:00.995Z,14.37
2019-03-11T23:07:47.627Z,13.27
2019-03-11T23:10:41.721Z,18.87
2019-03-11T23:13:31.463Z,17.97
2019-03-11T23:16:20.091Z,16.47
2019-03-11T23:19:10.119Z,16.70
2019-03-11T23:21:59.667Z,12.53
2019-03-11T23:24:46.299Z,15.33
2019-03-11T23:27:35.206Z,17.80
2019-03-11T23:30:21.699Z,19.47
2019-03-11T23:33:08.607Z,21.63
2019-03-11T23:35:56.707Z,22.07
2019-03-11T23:38:43.223Z,34.03
2019-03-11T23:41:30.012Z,74.60
2019-03-11T23:44:17.449Z,103.93
2019-03-11T23:47:03.983Z,117.57
2019-03-11T23:49:50.591Z,141.23
2019-03-11T23:52:37.334Z,121.30
2019-03-11T23:55:23.738Z,92.60
2019-03-11T23:58:10.775Z,75.40
